Station info - map view · info · telemetry · weather · raw · status · beacons · messages · bulletins · browse · moving · my account
Callsign, ship name or locator: Clear       
It is possible to search using wildcards (*?) after a prefix. Example: OH*
APRS station DJ9CG-9 - show graphs
Map loading...
Comment: DJ9CG DOK:F57 LOTHAR VX8GE
Mic-E message: En route
Location: 50°10.71' N 8°37.72' E - locator JO40HE52KU - show map - static map
4.8 miles West bearing 270° from Bad Vilbel, Regierungsbezirk Darmstadt, Hesse, Germany [?]
4.9 miles Northwest bearing 330° from Frankfurt am Main, Regierungsbezirk Darmstadt, Hesse, Germany
7.7 miles West bearing 262° from Niederdorfelden, Regierungsbezirk Darmstadt, Hesse, Germany
90.2 miles Southeast bearing 125° from Köln (Koeln), Regierungsbezirk Köln, North Rhine-Westphalia, Germany
Last position: 2018-08-03 06:57:56 EDT (12d 26m ago)
2018-08-03 12:57:56 CEST local time at Bad Vilbel, Germany [?]
Altitude: 531 ft
Course: 327°
Speed: 8 MPH
Device: Yaesu: VX-8G (ht)
Last path: DJ9CG-9>UP1PW1 via WIDE1-1,WIDE2-1,qAR,DB0EJ (good)
Positions stored: 16313
Other SSIDs: DJ9CG-5 DJ9CG-8
Stations near current position of DJ9CG-9 - show more
callsign distance last heard - EDT      callsign distance last heard - EDT
DF8FW-9151.4 yards 37°2018-08-14 08:43:41 DL1ZM-50.4 miles 293°2018-07-30 00:54:37
PS-DL3EL1.3 miles 159°2018-08-15 07:01:10 DG4ZS-91.9 miles 81°2018-08-14 14:28:37
DG4ZS-51.9 miles 82°2018-07-17 10:54:00 DL3EL-52.1 miles 142°2018-08-04 12:50:29
DL3EL-72.1 miles 144°2018-08-12 18:06:45 DL3EL2.1 miles 144°2018-08-12 12:26:32
DL3EL-132.5 miles 152°2018-08-04 14:35:17 DL3FD-52.8 miles 149°2018-08-10 16:04:56
DK3CW2.9 miles 137°2018-08-15 07:22:14 DB0HTV-DP3.2 miles 160°2018-08-09 10:19:18
DK1NF-N3.4 miles 352°2018-08-15 00:27:21 DH1CAD3.4 miles 168°2018-08-15 02:13:49
DB5ZQ3.5 miles 224°2018-08-15 07:20:39 DC2CK-73.6 miles 229°2018-08-07 16:40:37
PS-DM7DS3.6 miles 153°2018-08-15 06:00:10 DB0EJ3.7 miles 227°2018-08-15 07:21:36
DC4ZG-53.7 miles 95°2018-08-06 08:57:04 DF0HR3.7 miles 145°2018-08-15 07:10:29
Stations which heard DJ9CG-9 directly on radio –
callsign pkts first heard - EDT last heard longest (tx => rx) longest at - EDT
DB0LMM 4 2018-08-03 03:28:06 2018-08-03 04:14:18 JO51XB > JO61EI 25.7 miles 45° 2018-08-03 04:14:18
DB0KH 1 2018-08-03 05:53:05 2018-08-03 05:53:05 JO40ST > JO40RV 8.8 miles 325° 2018-08-03 05:53:05
SR1NRE 2 2018-08-03 00:14:15 2018-08-03 00:17:36 JO73II > JO73GK 8.7 miles 310° 2018-08-03 00:14:15
DB0KT 9 2018-08-03 06:35:10 2018-08-03 06:55:52 JO40HE > JO40PL 35.6 miles 52° 2018-08-03 06:55:52
DB0RIE 10 2018-08-03 04:49:28 2018-08-03 05:03:46 JO50IV > JO50NV 18.0 miles 94° 2018-08-03 05:03:46
DB0HRC-10 5 2018-08-03 03:58:57 2018-08-03 04:06:07 JO61AE > JO61AG 4.8 miles 26° 2018-08-03 04:06:07
DB0LPZ 9 2018-08-03 03:51:44 2018-08-03 04:12:15 JO51XC > JO61FI 27.3 miles 54° 2018-08-03 04:12:15
DB0BOS 1 2018-08-03 06:44:42 2018-08-03 06:44:42 JO40IH > JN49LR 40.1 miles 164° 2018-08-03 06:44:42
DB0ZAV-1 2 2018-08-03 06:46:40 2018-08-03 06:51:48 JO40HG > JO40JF 6.5 miles 121° 2018-08-03 06:46:40
DB0ESA 3 2018-08-03 05:14:03 2018-08-03 05:17:12 JO50FX > JO50DX 5.9 miles 267° 2018-08-03 05:14:03
SR1NDH 2 2018-08-02 22:15:54 2018-08-02 22:16:52 JO74UE > JO84CE 20.4 miles 88° 2018-08-02 22:16:52
DB0HDF 7 2018-08-03 04:16:21 2018-08-03 04:25:44 JO51XA > JO50WV 9.7 miles 203° 2018-08-03 04:16:21
DB0WOF-10 32 2018-08-03 03:04:14 2018-08-03 03:49:42 JO61EU > JO61DQ 14.7 miles 200° 2018-08-03 03:04:14
DK3RW-2 1 2018-08-03 06:11:38 2018-08-03 06:11:38 JO40OR > JO40LQ 10.9 miles 248° 2018-08-03 06:11:38
DM4JO-9 1 2018-08-03 02:04:16 2018-08-03 02:04:16 JO62LP > JO62LP 0.6 miles 300° 2018-08-03 02:04:16
DK3RW-10 2 2018-08-03 06:14:38 2018-08-03 06:22:55 JO40NR > JO40MO 8.0 miles 214° 2018-08-03 06:14:38
SR1WXN 1 2018-08-03 00:52:36 2018-08-03 00:52:36 JO73AF > JO72FW 26.6 miles 137° 2018-08-03 00:52:36
DO3EF-10 4 2018-08-03 06:15:40 2018-08-03 06:19:46 JO40MP > JO40MQ 3.1 miles 37° 2018-08-03 06:19:46
DB0LDS 1 2018-08-03 00:48:22 2018-08-03 00:48:22 JO73BG > JO62TH 70.2 miles 197° 2018-08-03 00:48:22
DL1HUB-10 2 2018-08-03 03:42:26 2018-08-03 03:44:31 JO61CO > JO61BM 6.2 miles 216° 2018-08-03 03:42:26
DB0LDK 3 2018-08-03 06:20:47 2018-08-03 06:31:06 JO40LP > JO40GM 21.5 miles 250° 2018-08-03 06:20:47
DG7FDL-10 5 2018-08-03 05:37:43 2018-08-03 05:41:46 JO40VU > JO40UU 4.0 miles 272° 2018-08-03 05:37:43
DO3HUM-10 1 2018-08-03 04:15:18 2018-08-03 04:15:18 JO51XB > JO51TG 18.8 miles 315° 2018-08-03 04:15:18
DB0REI-10 2 2018-08-03 06:21:55 2018-08-03 06:23:57 JO40LP > JO40KO 2.6 miles 245° 2018-08-03 06:21:55
SP2GDK-1 1 2018-08-02 22:49:20 2018-08-02 22:49:20 JO74TA > JO73VS 16.5 miles 163° 2018-08-02 22:49:20
DG7KR-8 1 2018-08-03 04:05:06 2018-08-03 04:05:06 JO61AF > JO51WG 8.0 miles 308° 2018-08-03 04:05:06
DB0OHV 2 2018-08-03 01:47:52 2018-08-03 01:48:52 JO62OQ > JO62PQ 2.0 miles 139° 2018-08-03 01:48:52
DB0EJ 1 2018-08-03 06:57:56 2018-08-03 06:57:56 JO40HE > JO40GD 3.7 miles 227° 2018-08-03 06:57:56
DB0INS 6 2018-08-03 04:53:28 2018-08-03 05:12:00 JO50MV > JO50FU 26.3 miles 261° 2018-08-03 04:53:28
SR1NRT 4 2018-08-02 23:54:50 2018-08-03 00:05:17 JO73KO > JO73HN 11.5 miles 262° 2018-08-02 23:54:50
DB0WOL 2 2018-08-03 00:32:46 2018-08-03 00:34:50 JO73FI > JO62XR 46.2 miles 206° 2018-08-03 00:34:50
SP1WSR-2 4 2018-08-03 00:25:04 2018-08-03 00:35:50 JO73FI > JO73HI 6.2 miles 77° 2018-08-03 00:35:50
DB0PDM 1 2018-08-03 02:27:41 2018-08-03 02:27:41 JO62KH > JO62MI 9.5 miles 72° 2018-08-03 02:27:41
DB0SBN 3 2018-08-03 05:09:55 2018-08-03 05:15:06 JO51EA > JO50HX 8.7 miles 97° 2018-08-03 05:15:06
DB0TA 9 2018-08-03 01:17:00 2018-08-03 02:17:29 JO62LK > JO62TP 32.8 miles 62° 2018-08-03 02:17:29
DB0SLF 10 2018-08-03 04:26:41 2018-08-03 04:55:38 JO50VV > JO50QP 26.5 miles 230° 2018-08-03 04:26:41
DB0BBB 13 2018-08-03 01:27:08 2018-08-03 01:53:57 JO62NQ > JO62SQ 18.3 miles 96° 2018-08-03 01:53:57
DB0JEN 5 2018-08-03 04:29:45 2018-08-03 04:42:15 JO50RV > JO50TU 9.0 miles 109° 2018-08-03 04:42:15

Only position packets which were originated by the station are shown here. The range statistics show some extra long hops, because some digipeaters do not correctly add themselves to the digipeater path. Please check the raw packets.
About this site
This page shows real-time information collected from the Automatic Position Reporting System Internet network (APRS-IS). APRS is used by amateur (ham) radio operators to transmit real-time position information, weather data, telemetry and messages over the radio. A vehicle equipped with a GPS receiver, a VHF transmitter or HF transceiver and a small computer device called a tracker transmits it's location, speed and course in a small data packet, which is then received by a nearby iGate receiving site which forwards the packet on the Internet. Systems connected to the Internet can send information on the APRS-IS without a radio transmitter, or collect and display information transmitted anywhere in the world.
FAQ · Blog · Discussion group · Linking to aprs.fi · AIS sites · Service status · Database statistics · Advertising on aprs.fi · Technical details · API · Change log · Planned changes · Credits and thanks · Terms Of Service · iPhone/iPad APRS